Time;durP1;ratioP1;P1;durP2;ratioP2;P2;SDS_P1;SDS_P2;PMS_P1;PMS_P2;Temp;Humidity;BMP_temperature;BMP_pressure;BME280_temperature;BME280_humidity;BME280_pressure;Samples;Min_cycle;Max_cycle;Signal;HPM_P1;HPM_P2
2023/10/08 00:01:50;;;;;;;7.95;3.45;;;13.20;99.90;;;;;;5028532;28;20032;-81
2023/10/08 00:04:19;;;;;;;5.88;3.22;;;13.30;99.90;;;;;;5040222;28;20447;-80
2023/10/08 00:06:46;;;;;;;5.93;3.10;;;13.20;99.90;;;;;;5042843;28;20148;-80
2023/10/08 00:09:14;;;;;;;7.00;3.90;;;13.20;99.90;;;;;;5010946;28;20120;-80
2023/10/08 00:11:40;;;;;;;5.38;3.05;;;13.30;99.90;;;;;;5036284;28;20043;-79
2023/10/08 00:14:10;;;;;;;5.00;2.85;;;13.30;99.90;;;;;;5035172;28;20501;-78
2023/10/08 00:16:40;;;;;;;7.07;3.22;;;13.20;99.90;;;;;;5035612;28;20044;-80
2023/10/08 00:19:14;;;;;;;8.52;3.00;;;13.20;99.90;;;;;;5022736;28;20029;-79
2023/10/08 00:21:41;;;;;;;6.15;2.80;;;13.20;99.90;;;;;;5026922;28;20028;-79
2023/10/08 00:24:09;;;;;;;8.23;2.90;;;13.20;99.90;;;;;;5029428;28;20071;-78
2023/10/08 00:26:39;;;;;;;7.95;3.90;;;13.10;99.90;;;;;;5030071;28;20590;-78
2023/10/08 00:29:16;;;;;;;6.25;2.47;;;13.10;99.90;;;;;;5034733;28;20045;-79
2023/10/08 00:31:45;;;;;;;4.90;2.85;;;13.10;99.90;;;;;;5021176;28;20036;-78
2023/10/08 00:34:14;;;;;;;5.97;3.10;;;13.00;99.90;;;;;;5032488;28;20029;-79
2023/10/08 00:36:41;;;;;;;4.93;2.78;;;12.90;99.90;;;;;;5031539;28;20108;-78
2023/10/08 00:39:13;;;;;;;8.25;3.30;;;12.80;99.90;;;;;;5031987;28;20029;-78
2023/10/08 00:41:45;;;;;;;6.15;2.80;;;12.80;99.90;;;;;;5035333;28;20022;-78
2023/10/08 00:44:14;;;;;;;7.80;3.13;;;12.80;99.90;;;;;;5028223;28;20108;-78
2023/10/08 00:46:47;;;;;;;6.07;3.60;;;12.70;99.90;;;;;;5033471;28;20021;-78
2023/10/08 00:51:59;;;;;;;7.13;3.03;;;12.60;99.90;;;;;;5039788;28;20045;-78
2023/10/08 00:54:32;;;;;;;8.57;3.22;;;12.60;99.90;;;;;;5034834;28;20044;-79
2023/10/08 00:57:04;;;;;;;5.97;3.30;;;12.60;99.90;;;;;;5036483;28;20084;-78
2023/10/08 00:59:45;;;;;;;8.80;3.60;;;12.70;99.90;;;;;;5032331;28;20039;-79
2023/10/08 01:02:14;;;;;;;6.32;3.08;;;12.70;99.90;;;;;;5031495;28;20025;-78
2023/10/08 01:04:43;;;;;;;5.15;3.35;;;12.80;99.90;;;;;;5032967;28;20116;-79
2023/10/08 01:07:18;;;;;;;6.25;2.90;;;12.90;99.90;;;;;;5018649;28;20033;-79
2023/10/08 01:09:51;;;;;;;6.05;3.28;;;12.90;99.90;;;;;;5016969;28;20029;-78
2023/10/08 01:14:49;;;;;;;7.78;2.78;;;13.00;99.90;;;;;;5035206;28;20034;-81
2023/10/08 01:17:16;;;;;;;9.60;3.03;;;13.10;99.90;;;;;;5007291;28;20060;-80
2023/10/08 01:19:59;;;;;;;5.28;3.30;;;13.10;99.90;;;;;;5029116;28;20040;-79
2023/10/08 01:22:29;;;;;;;7.07;2.95;;;13.10;99.90;;;;;;5028198;28;20024;-80
2023/10/08 01:24:55;;;;;;;6.35;3.30;;;13.10;99.90;;;;;;5016489;28;20680;-79
2023/10/08 01:27:24;;;;;;;6.22;3.20;;;13.10;99.90;;;;;;5010728;28;20026;-79
2023/10/08 01:29:53;;;;;;;5.88;2.70;;;13.10;99.90;;;;;;5013825;28;20033;-79
2023/10/08 01:32:21;;;;;;;4.90;2.78;;;13.10;99.90;;;;;;5034402;28;20034;-78
2023/10/08 01:34:48;;;;;;;4.35;2.70;;;13.10;99.90;;;;;;5018431;28;20629;-78
2023/10/08 01:37:17;;;;;;;4.50;2.90;;;13.00;99.90;;;;;;5029307;28;20042;-79
2023/10/08 01:39:50;;;;;;;5.60;2.83;;;13.00;99.90;;;;;;5031462;28;20040;-78
2023/10/08 01:42:20;;;;;;;8.32;2.85;;;13.00;99.90;;;;;;5039137;28;20034;-79
2023/10/08 01:44:54;;;;;;;4.15;2.80;;;13.00;99.90;;;;;;5033329;28;20055;-78
2023/10/08 01:47:19;;;;;;;6.40;3.08;;;12.90;99.90;;;;;;5037508;28;20076;-79
2023/10/08 01:49:46;;;;;;;6.03;2.97;;;12.90;99.90;;;;;;5018074;28;20036;-79
2023/10/08 01:52:17;;;;;;;3.92;2.70;;;12.90;99.90;;;;;;5031407;28;20044;-78
2023/10/08 01:54:44;;;;;;;6.13;3.08;;;12.90;99.90;;;;;;5032241;28;20029;-79
2023/10/08 01:57:11;;;;;;;5.97;2.97;;;12.90;99.90;;;;;;5014468;28;20030;-76
2023/10/08 01:59:40;;;;;;;4.93;3.20;;;12.80;99.90;;;;;;5018411;28;20028;-78
2023/10/08 02:02:06;;;;;;;8.25;3.20;;;12.70;99.90;;;;;;5031242;28;20037;-78
2023/10/08 02:04:36;;;;;;;4.97;2.65;;;12.60;99.90;;;;;;5030596;28;20033;-80
2023/10/08 02:07:03;;;;;;;5.85;3.25;;;12.50;99.90;;;;;;5027535;28;20579;-77
2023/10/08 02:09:30;;;;;;;7.38;3.50;;;12.50;99.90;;;;;;5034379;28;20029;-79
2023/10/08 02:11:56;;;;;;;5.97;2.92;;;12.40;99.90;;;;;;5003974;28;20033;-78
2023/10/08 02:14:23;;;;;;;6.20;3.25;;;12.30;99.90;;;;;;5011764;28;20239;-79
2023/10/08 02:17:01;;;;;;;4.63;2.55;;;12.30;99.90;;;;;;5020889;28;20044;-78
2023/10/08 02:19:28;;;;;;;5.25;3.15;;;12.20;99.90;;;;;;5028021;28;20034;-78
2023/10/08 02:21:55;;;;;;;5.85;2.70;;;12.20;99.90;;;;;;5026946;28;20059;-78
2023/10/08 02:24:24;;;;;;;7.22;2.85;;;12.10;99.90;;;;;;5037580;28;20041;-78
2023/10/08 02:26:54;;;;;;;8.32;3.78;;;12.10;99.90;;;;;;5043655;28;20037;-78
2023/10/08 02:29:29;;;;;;;5.18;2.97;;;12.00;99.90;;;;;;5038508;28;20574;-79
2023/10/08 02:31:59;;;;;;;5.50;2.70;;;12.00;99.90;;;;;;4988114;28;20033;-80
2023/10/08 02:34:25;;;;;;;7.75;2.95;;;12.00;99.90;;;;;;5042449;28;20124;-79
2023/10/08 02:36:51;;;;;;;8.15;3.55;;;11.90;99.90;;;;;;5015209;28;20025;-79
2023/10/08 02:39:21;;;;;;;6.68;3.38;;;11.90;99.90;;;;;;5031311;28;20036;-77
2023/10/08 02:41:48;;;;;;;5.43;2.63;;;12.00;99.90;;;;;;5007730;28;20034;-78
2023/10/08 02:44:15;;;;;;;8.48;3.45;;;12.00;99.90;;;;;;5041578;28;20083;-78
2023/10/08 02:46:42;;;;;;;6.72;3.50;;;12.00;99.90;;;;;;5028279;28;20026;-78
2023/10/08 02:49:11;;;;;;;6.15;3.30;;;12.00;99.90;;;;;;5032558;28;20033;-78
2023/10/08 02:51:41;;;;;;;7.45;2.95;;;12.00;99.90;;;;;;5026445;28;20038;-78
2023/10/08 02:54:16;;;;;;;7.78;3.45;;;12.00;99.90;;;;;;5025345;28;20029;-78
2023/10/08 02:56:44;;;;;;;6.05;3.30;;;12.00;99.90;;;;;;5026975;28;20029;-78
2023/10/08 02:59:14;;;;;;;6.57;2.70;;;12.00;99.90;;;;;;5034182;28;20677;-78
2023/10/08 03:01:41;;;;;;;7.55;3.45;;;12.00;99.90;;;;;;5032628;28;20026;-79
2023/10/08 03:04:17;;;;;;;7.97;3.15;;;12.00;99.90;;;;;;5015729;28;20029;-78
2023/10/08 03:06:49;;;;;;;7.15;3.33;;;12.00;99.90;;;;;;5009776;28;20034;-78
2023/10/08 03:09:32;;;;;;;6.75;3.35;;;12.00;99.90;;;;;;5027759;28;20549;-78
2023/10/08 03:12:07;;;;;;;5.60;3.33;;;12.00;99.90;;;;;;5004499;28;20040;-78
2023/10/08 03:14:41;;;;;;;4.63;2.60;;;12.00;99.90;;;;;;5011464;28;20037;-78
2023/10/08 03:17:09;;;;;;;6.50;3.00;;;12.00;99.90;;;;;;5023885;28;20033;-78
2023/10/08 03:19:38;;;;;;;4.68;2.80;;;12.00;99.90;;;;;;5008413;28;20513;-80
2023/10/08 03:22:04;;;;;;;5.63;3.45;;;12.00;99.90;;;;;;5037862;28;20033;-80
2023/10/08 03:29:54;;;;;;;8.27;3.13;;;12.00;99.90;;;;;;5010964;28;20041;-79
2023/10/08 03:32:26;;;;;;;5.63;3.00;;;12.10;99.90;;;;;;5036138;28;20046;-78
2023/10/08 03:34:54;;;;;;;5.68;3.00;;;12.10;99.90;;;;;;5041762;28;20029;-78
2023/10/08 03:37:29;;;;;;;7.13;2.90;;;12.10;99.90;;;;;;5034498;28;20092;-78
2023/10/08 03:40:22;;;;;;;6.73;3.20;;;12.10;99.90;;;;;;5039275;28;20107;-80
2023/10/08 03:42:49;;;;;;;6.60;3.03;;;12.10;99.90;;;;;;5033664;28;20117;-79
2023/10/08 03:45:22;;;;;;;5.47;2.70;;;12.10;99.90;;;;;;5008905;28;20563;-78
2023/10/08 03:48:03;;;;;;;7.20;3.30;;;12.10;99.90;;;;;;5029014;28;20038;-79
2023/10/08 03:50:43;;;;;;;6.43;3.00;;;12.10;99.90;;;;;;5028398;28;20048;-79
2023/10/08 03:53:11;;;;;;;7.00;2.80;;;12.10;99.90;;;;;;5035324;28;20041;-79
2023/10/08 03:55:40;;;;;;;8.60;3.08;;;12.20;99.90;;;;;;5032180;28;20049;-78
2023/10/08 03:58:11;;;;;;;4.75;2.58;;;12.20;99.90;;;;;;5032243;28;20042;-79
2023/10/08 04:00:41;;;;;;;4.50;2.85;;;12.20;99.90;;;;;;5040184;28;20044;-79
2023/10/08 04:03:11;;;;;;;4.88;2.40;;;12.20;99.90;;;;;;5036814;28;20038;-79
2023/10/08 04:05:44;;;;;;;4.53;3.05;;;12.20;99.90;;;;;;5017757;28;20577;-79
2023/10/08 04:08:42;;;;;;;8.52;3.03;;;12.30;99.90;;;;;;5028763;28;20045;-78
2023/10/08 04:11:51;;;;;;;9.90;3.15;;;12.20;99.90;;;;;;5039982;28;20048;-79
2023/10/08 04:14:00;;;;;;;6.13;3.03;;;12.30;99.90;;;;;;5023482;28;20041;-79
2023/10/08 04:16:27;;;;;;;8.23;3.38;;;12.30;99.90;;;;;;5036392;28;20086;-78
2023/10/08 04:18:55;;;;;;;5.85;3.17;;;12.30;99.90;;;;;;5033890;28;20444;-79
2023/10/08 04:21:27;;;;;;;6.55;2.63;;;12.30;99.90;;;;;;5046559;28;20036;-81
2023/10/08 04:23:53;;;;;;;9.05;2.78;;;12.30;99.90;;;;;;5044150;28;20055;-79
2023/10/08 04:26:23;;;;;;;6.30;3.20;;;12.30;99.90;;;;;;5033497;28;20033;-78
2023/10/08 04:29:02;;;;;;;5.43;3.42;;;12.30;99.90;;;;;;5049262;28;20037;-79
2023/10/08 04:31:54;;;;;;;6.32;3.30;;;12.40;99.90;;;;;;5048712;28;20044;-79
2023/10/08 04:34:24;;;;;;;4.93;2.63;;;12.40;99.90;;;;;;5044793;28;20159;-78
2023/10/08 04:37:00;;;;;;;11.60;3.72;;;12.40;99.90;;;;;;5044484;28;20055;-78
2023/10/08 04:39:32;;;;;;;6.30;3.35;;;12.40;99.90;;;;;;5045320;28;20120;-79
2023/10/08 04:42:05;;;;;;;5.22;2.80;;;12.50;99.90;;;;;;5032892;28;20033;-78
2023/10/08 04:44:32;;;;;;;6.90;3.15;;;12.50;99.90;;;;;;5045887;28;20033;-78
2023/10/08 04:47:04;;;;;;;8.23;3.30;;;12.50;99.90;;;;;;5016660;28;20041;-78
2023/10/08 04:49:32;;;;;;;7.28;3.40;;;12.50;99.90;;;;;;5041050;28;20083;-78
2023/10/08 04:52:13;;;;;;;7.03;3.50;;;12.50;99.90;;;;;;5033977;28;20112;-78
2023/10/08 04:54:40;;;;;;;6.05;3.40;;;12.50;99.90;;;;;;5041807;28;20032;-79
2023/10/08 04:57:14;;;;;;;6.25;3.80;;;12.50;99.90;;;;;;5040932;28;20056;-78
2023/10/08 04:59:44;;;;;;;5.65;3.38;;;12.50;99.90;;;;;;5056043;28;20029;-77
2023/10/08 05:02:20;;;;;;;11.52;3.95;;;12.50;99.90;;;;;;5042750;28;20029;-78
2023/10/08 05:13:15;;;;;;;9.13;3.47;;;12.60;99.90;;;;;;5035050;28;20040;-78
2023/10/08 05:15:49;;;;;;;6.63;4.00;;;12.70;99.90;;;;;;5042350;28;20385;-79
2023/10/08 05:20:59;;;;;;;7.55;3.25;;;12.70;99.90;;;;;;5033353;28;20021;-78
2023/10/08 05:28:35;;;;;;;8.25;3.03;;;12.80;99.90;;;;;;5032763;28;20140;-79
2023/10/08 05:42:13;;;;;;;5.95;3.70;;;13.10;99.90;;;;;;5007240;28;20053;-80
2023/10/08 05:44:45;;;;;;;8.70;4.25;;;13.10;99.90;;;;;;5038592;28;20544;-79
2023/10/08 05:47:34;;;;;;;8.18;3.42;;;13.10;99.90;;;;;;5036054;28;20053;-80
2023/10/08 05:52:53;;;;;;;11.23;3.70;;;13.10;99.90;;;;;;5028712;28;20122;-81
2023/10/08 05:55:25;;;;;;;6.90;3.15;;;13.20;99.90;;;;;;5040467;28;20033;-79
2023/10/08 05:58:13;;;;;;;5.82;3.40;;;13.20;99.90;;;;;;5036779;28;20036;-79
2023/10/08 06:01:05;;;;;;;7.40;3.53;;;13.20;99.90;;;;;;5036026;28;20025;-80
2023/10/08 06:03:39;;;;;;;8.80;3.13;;;13.20;99.90;;;;;;5046590;28;20060;-79
2023/10/08 06:07:10;;;;;;;7.53;3.30;;;13.30;99.90;;;;;;5015463;28;20034;-80
2023/10/08 06:09:20;;;;;;;7.45;3.35;;;13.30;99.90;;;;;;5018377;28;20061;-78
2023/10/08 06:12:06;;;;;;;8.38;3.60;;;13.20;99.90;;;;;;5042793;28;20055;-80
2023/10/08 06:17:55;;;;;;;8.80;3.13;;;13.20;99.90;;;;;;5036449;28;19940;-80
2023/10/08 06:20:25;;;;;;;10.48;3.75;;;13.20;99.90;;;;;;5017218;28;20122;-79
2023/10/08 06:22:54;;;;;;;8.55;3.40;;;13.20;99.90;;;;;;5046375;28;20025;-80
2023/10/08 06:25:23;;;;;;;7.03;3.50;;;13.20;99.90;;;;;;5040555;28;20037;-79
2023/10/08 06:27:58;;;;;;;4.90;3.50;;;13.20;99.90;;;;;;5016393;28;20045;-79
2023/10/08 06:30:28;;;;;;;7.95;3.30;;;13.20;99.90;;;;;;5033838;28;20114;-79
2023/10/08 06:32:56;;;;;;;6.38;3.60;;;13.30;99.90;;;;;;5029049;28;20064;-79
2023/10/08 06:35:25;;;;;;;6.88;3.53;;;13.30;99.90;;;;;;5028653;28;20092;-79
2023/10/08 06:37:54;;;;;;;6.20;3.40;;;13.30;99.90;;;;;;5030092;28;20029;-79
2023/10/08 06:43:21;;;;;;;7.07;3.85;;;13.30;99.90;;;;;;5034871;28;20029;-78
2023/10/08 06:45:52;;;;;;;10.05;3.40;;;13.30;99.90;;;;;;5033343;28;20056;-80
2023/10/08 06:48:21;;;;;;;8.57;3.75;;;13.40;99.90;;;;;;5039087;28;20478;-79
2023/10/08 06:50:48;;;;;;;5.43;3.40;;;13.40;99.90;;;;;;5038472;28;20037;-79
2023/10/08 06:53:14;;;;;;;9.25;3.35;;;13.40;99.90;;;;;;5038336;28;20083;-78
2023/10/08 06:55:41;;;;;;;7.22;3.72;;;13.50;99.90;;;;;;5035166;28;20092;-79
2023/10/08 06:58:08;;;;;;;8.02;3.78;;;13.60;99.90;;;;;;5022665;28;20129;-79
2023/10/08 07:00:48;;;;;;;9.05;3.70;;;13.60;99.90;;;;;;5020671;28;20033;-79
2023/10/08 07:03:15;;;;;;;9.07;3.80;;;13.60;99.90;;;;;;5037873;28;20026;-78
2023/10/08 07:05:58;;;;;;;7.90;4.50;;;13.60;99.90;;;;;;5036754;28;20497;-79
2023/10/08 07:08:27;;;;;;;9.05;4.18;;;13.60;99.90;;;;;;5039601;28;20034;-79
2023/10/08 07:10:53;;;;;;;8.27;4.18;;;13.60;99.90;;;;;;5036065;28;20033;-79
2023/10/08 07:13:22;;;;;;;5.32;3.50;;;13.60;99.90;;;;;;5030951;28;20052;-78
2023/10/08 07:15:57;;;;;;;9.20;4.35;;;13.70;99.90;;;;;;5033698;28;20706;-78
2023/10/08 07:18:26;;;;;;;8.30;4.40;;;13.70;99.90;;;;;;5033220;28;20021;-80
2023/10/08 07:21:00;;;;;;;9.18;3.88;;;13.80;99.90;;;;;;5040787;28;20167;-78
2023/10/08 07:23:29;;;;;;;9.07;3.97;;;13.80;99.90;;;;;;5019549;28;20030;-78
2023/10/08 07:26:10;;;;;;;6.32;3.78;;;13.90;99.90;;;;;;5035979;28;20064;-79
2023/10/08 07:28:39;;;;;;;12.10;4.47;;;13.90;99.90;;;;;;5036812;28;20041;-78
2023/10/08 07:31:16;;;;;;;8.05;3.80;;;14.00;99.90;;;;;;5022809;28;20048;-78
2023/10/08 07:33:47;;;;;;;6.25;3.60;;;14.10;99.90;;;;;;5036364;28;20030;-80
2023/10/08 07:36:14;;;;;;;6.80;3.92;;;14.10;99.90;;;;;;5038563;28;20519;-77
2023/10/08 07:38:44;;;;;;;5.88;3.33;;;14.20;99.90;;;;;;5027212;28;20040;-78
2023/10/08 07:41:14;;;;;;;8.35;3.78;;;14.10;99.90;;;;;;5040318;28;20386;-80
2023/10/08 07:43:46;;;;;;;8.90;4.22;;;14.10;99.90;;;;;;5032498;28;20112;-81
2023/10/08 07:46:15;;;;;;;7.28;3.67;;;14.10;99.90;;;;;;5026256;28;20029;-78
2023/10/08 07:48:43;;;;;;;8.32;4.30;;;14.10;99.90;;;;;;5026517;28;20026;-79
2023/10/08 07:51:09;;;;;;;7.75;4.00;;;14.10;99.90;;;;;;5029430;28;20064;-78
2023/10/08 07:53:42;;;;;;;8.27;4.40;;;14.10;99.90;;;;;;5035694;28;20036;-78
2023/10/08 07:56:08;;;;;;;7.50;3.92;;;14.20;99.90;;;;;;5030039;28;20048;-78
2023/10/08 07:58:37;;;;;;;7.03;3.95;;;14.20;99.90;;;;;;5033035;28;20120;-78
2023/10/08 08:01:14;;;;;;;9.70;3.95;;;14.30;99.90;;;;;;5031126;28;20801;-79
2023/10/08 08:03:45;;;;;;;9.65;4.25;;;14.30;99.90;;;;;;5028734;28;20033;-79
2023/10/08 08:06:13;;;;;;;9.68;4.43;;;14.40;99.90;;;;;;5028781;28;20053;-77
2023/10/08 08:08:39;;;;;;;9.63;4.07;;;14.50;99.90;;;;;;5025384;28;20655;-79
2023/10/08 08:11:12;;;;;;;6.40;3.95;;;14.60;99.90;;;;;;5023731;28;20037;-78
2023/10/08 08:13:44;;;;;;;8.35;3.65;;;14.60;99.90;;;;;;5023122;28;20035;-79
2023/10/08 08:16:17;;;;;;;10.52;3.78;;;14.70;99.90;;;;;;5025609;28;20037;-79
2023/10/08 08:18:57;;;;;;;8.20;4.20;;;14.80;99.90;;;;;;5027589;28;20065;-78
2023/10/08 08:21:23;;;;;;;6.15;4.10;;;14.80;99.90;;;;;;5023857;28;20038;-78
2023/10/08 08:23:49;;;;;;;9.63;4.00;;;14.80;99.90;;;;;;5030598;28;20128;-76
2023/10/08 08:26:26;;;;;;;9.25;4.32;;;14.80;99.90;;;;;;5031958;28;20049;-77
2023/10/08 08:29:01;;;;;;;7.25;4.18;;;14.80;99.90;;;;;;5011656;28;20064;-76
2023/10/08 08:31:31;;;;;;;6.30;3.58;;;14.80;99.90;;;;;;5007095;28;20076;-77
2023/10/08 08:34:02;;;;;;;7.97;3.78;;;14.80;99.90;;;;;;5008519;28;20049;-77
2023/10/08 08:36:30;;;;;;;7.20;4.10;;;14.80;99.90;;;;;;5005171;28;19917;-77
2023/10/08 08:38:56;;;;;;;8.85;4.20;;;14.80;99.90;;;;;;5026400;28;20033;-77
2023/10/08 08:41:23;;;;;;;7.30;3.70;;;14.80;99.90;;;;;;5029623;28;20034;-78
2023/10/08 08:43:56;;;;;;;7.82;4.22;;;14.80;99.90;;;;;;5025125;28;20053;-79
2023/10/08 08:46:31;;;;;;;7.65;4.05;;;14.80;99.90;;;;;;5023125;28;20496;-78
2023/10/08 08:49:03;;;;;;;7.40;3.75;;;14.90;99.90;;;;;;5029240;28;20048;-78
2023/10/08 08:51:30;;;;;;;9.07;3.63;;;15.00;99.90;;;;;;5036875;28;20562;-78
2023/10/08 08:53:56;;;;;;;8.40;4.47;;;15.00;99.90;;;;;;5029327;28;20029;-78
2023/10/08 08:56:22;;;;;;;7.80;3.70;;;15.10;99.90;;;;;;5028221;28;20120;-76
2023/10/08 08:58:49;;;;;;;8.30;3.90;;;15.10;99.90;;;;;;5035366;28;20033;-78
2023/10/08 09:01:17;;;;;;;7.47;4.13;;;15.10;99.90;;;;;;5033169;28;20102;-78
2023/10/08 09:03:45;;;;;;;6.10;3.40;;;15.10;99.90;;;;;;5030896;28;20038;-78
2023/10/08 09:06:11;;;;;;;7.18;4.32;;;15.20;99.90;;;;;;5038014;28;20546;-78
2023/10/08 09:08:42;;;;;;;7.60;3.72;;;15.20;99.90;;;;;;5038735;28;20118;-78
2023/10/08 09:11:08;;;;;;;9.63;4.47;;;15.20;99.90;;;;;;5030011;28;20091;-77
2023/10/08 09:13:35;;;;;;;8.50;4.57;;;15.20;99.90;;;;;;5029038;28;20053;-78
2023/10/08 09:16:08;;;;;;;11.00;4.80;;;15.10;99.90;;;;;;5032794;28;20543;-76
2023/10/08 09:18:34;;;;;;;6.80;4.25;;;15.10;99.90;;;;;;5022644;28;20029;-77
2023/10/08 09:21:15;;;;;;;8.85;4.50;;;15.10;99.90;;;;;;5023919;28;20053;-77
2023/10/08 09:23:47;;;;;;;7.15;4.13;;;15.10;99.90;;;;;;5030062;28;20044;-78
2023/10/08 09:26:14;;;;;;;12.60;4.32;;;15.10;99.90;;;;;;5030342;28;20044;-77
2023/10/08 09:28:48;;;;;;;8.95;4.00;;;15.10;99.90;;;;;;5026450;28;20365;-78
2023/10/08 09:31:14;;;;;;;8.15;4.25;;;15.10;99.90;;;;;;5022464;28;20546;-80
2023/10/08 09:33:41;;;;;;;10.55;4.35;;;15.10;99.90;;;;;;5029951;28;20037;-78
2023/10/08 09:36:10;;;;;;;9.38;4.53;;;15.10;99.90;;;;;;5030685;28;20068;-78
2023/10/08 09:38:37;;;;;;;7.25;4.18;;;15.10;99.90;;;;;;5029954;28;21025;-78
2023/10/08 09:41:03;;;;;;;7.53;3.70;;;15.10;99.90;;;;;;5024781;28;20099;-78
2023/10/08 09:43:32;;;;;;;9.43;4.03;;;15.10;99.90;;;;;;5045319;28;20053;-78
2023/10/08 09:46:18;;;;;;;7.78;3.67;;;15.10;99.90;;;;;;5040953;28;20051;-78
2023/10/08 09:48:48;;;;;;;;;;;15.10;99.90;;;;;;5034541;28;20047;-78
2023/10/08 09:51:14;;;;;;;6.78;4.10;;;15.00;99.90;;;;;;5024939;28;19913;-78
2023/10/08 09:53:59;;;;;;;7.82;4.20;;;15.00;99.90;;;;;;5029948;28;20044;-78
2023/10/08 09:56:26;;;;;;;8.32;4.25;;;15.00;99.90;;;;;;5027034;28;20081;-78
2023/10/08 09:58:54;;;;;;;9.25;4.68;;;15.00;99.90;;;;;;5026800;28;20060;-79
2023/10/08 10:01:22;;;;;;;3.17;2.63;;;15.00;99.90;;;;;;5022830;28;20049;-78
2023/10/08 10:03:49;;;;;;;4.32;2.15;;;14.90;99.90;;;;;;5023760;28;20045;-78
2023/10/08 10:06:17;;;;;;;3.15;1.83;;;14.80;99.90;;;;;;5024683;28;20034;-78
2023/10/08 10:08:44;;;;;;;1.85;1.40;;;14.60;99.90;;;;;;5022165;28;20204;-78
2023/10/08 10:11:10;;;;;;;1.67;1.30;;;14.40;99.90;;;;;;5022566;28;20029;-78
2023/10/08 10:13:52;;;;;;;1.77;1.20;;;14.20;99.90;;;;;;5023340;28;20104;-78
2023/10/08 10:16:21;;;;;;;0.90;0.75;;;14.10;99.90;;;;;;5022344;28;20083;-78
2023/10/08 10:18:49;;;;;;;1.00;0.80;;;13.90;99.90;;;;;;5021444;28;20417;-78
2023/10/08 10:21:15;;;;;;;0.88;0.70;;;13.80;99.90;;;;;;5019831;28;20029;-77
2023/10/08 10:23:50;;;;;;;0.93;0.82;;;13.60;99.90;;;;;;5024307;28;20018;-78
2023/10/08 10:26:31;;;;;;;1.58;1.15;;;13.50;99.90;;;;;;5023605;28;20072;-78
2023/10/08 10:29:15;;;;;;;1.40;0.88;;;13.40;99.90;;;;;;5010118;28;20045;-76
2023/10/08 10:31:46;;;;;;;1.05;0.70;;;13.30;99.90;;;;;;5024553;28;20044;-78
2023/10/08 10:34:17;;;;;;;1.00;0.50;;;13.20;99.90;;;;;;5020563;28;20158;-77
2023/10/08 10:36:49;;;;;;;2.28;0.40;;;13.10;99.90;;;;;;5032126;28;20500;-78
2023/10/08 10:39:17;;;;;;;1.13;0.63;;;13.10;99.90;;;;;;5027379;28;20112;-77
2023/10/08 10:41:48;;;;;;;1.10;0.60;;;13.00;99.90;;;;;;5030287;28;20082;-77
2023/10/08 10:44:15;;;;;;;0.50;0.50;;;13.00;99.90;;;;;;5027349;28;20087;-77
2023/10/08 10:46:51;;;;;;;0.20;0.20;;;12.90;99.90;;;;;;5032212;28;20036;-78
2023/10/08 10:49:21;;;;;;;4.93;0.65;;;12.90;99.90;;;;;;5028836;28;20508;-78
2023/10/08 10:51:59;;;;;;;0.50;0.40;;;12.90;99.90;;;;;;5007855;28;20128;-77
2023/10/08 10:54:26;;;;;;;0.57;0.40;;;12.90;99.90;;;;;;5028386;28;20726;-77
2023/10/08 10:57:05;;;;;;;2.30;0.60;;;12.90;99.90;;;;;;5029135;28;20061;-77
2023/10/08 10:59:37;;;;;;;0.20;0.20;;;12.90;99.90;;;;;;5029621;28;20033;-76
2023/10/08 11:02:20;;;;;;;0.50;0.40;;;12.90;99.90;;;;;;5013474;28;20029;-76
2023/10/08 11:04:47;;;;;;;0.20;0.20;;;12.90;99.90;;;;;;5014543;28;20048;-75
2023/10/08 11:07:23;;;;;;;0.25;0.22;;;12.90;99.90;;;;;;5014115;28;20073;-77
2023/10/08 11:09:51;;;;;;;0.30;0.30;;;12.80;99.90;;;;;;5027432;28;20021;-78
2023/10/08 11:12:22;;;;;;;0.30;0.28;;;12.80;99.90;;;;;;5027014;28;20052;-76
2023/10/08 11:14:52;;;;;;;1.15;0.20;;;12.90;99.90;;;;;;5027312;28;20037;-77
2023/10/08 11:17:26;;;;;;;2.55;0.20;;;12.90;99.90;;;;;;5026325;28;20018;-77
2023/10/08 11:19:52;;;;;;;0.52;0.30;;;12.90;99.90;;;;;;5025692;28;20032;-77
2023/10/08 11:22:18;;;;;;;0.30;0.30;;;12.80;99.90;;;;;;5038240;28;20056;-77
2023/10/08 11:24:48;;;;;;;0.10;0.10;;;12.90;99.90;;;;;;5037976;28;20474;-76
2023/10/08 11:27:28;;;;;;;0.22;0.10;;;12.90;99.90;;;;;;5027180;28;20722;-76
2023/10/08 11:29:59;;;;;;;0.22;0.20;;;12.80;99.90;;;;;;5035059;28;20030;-76
2023/10/08 11:32:26;;;;;;;0.28;0.28;;;12.80;99.90;;;;;;5036412;28;20033;-77
2023/10/08 11:34:59;;;;;;;0.20;0.20;;;12.70;99.90;;;;;;5028125;28;20069;-76
2023/10/08 11:37:35;;;;;;;7.22;0.40;;;12.70;99.90;;;;;;5038031;28;20508;-77
2023/10/08 11:40:09;;;;;;;;;;;12.60;99.90;;;;;;5025284;28;20057;-77
2023/10/08 11:45:24;;;;;;;1.63;0.30;;;12.50;99.90;;;;;;5033733;28;20044;-77
2023/10/08 11:47:55;;;;;;;1.40;0.25;;;12.50;99.90;;;;;;5027719;28;20064;-76
2023/10/08 11:50:30;;;;;;;0.10;0.10;;;12.50;99.90;;;;;;5030023;28;20654;-76
2023/10/08 11:53:03;;;;;;;;;;;12.40;99.90;;;;;;5031592;28;20037;-76
2023/10/08 11:55:34;;;;;;;0.35;0.35;;;12.40;99.90;;;;;;5032385;28;19925;-77
2023/10/08 11:58:00;;;;;;;0.30;0.30;;;12.40;99.90;;;;;;5027402;28;20068;-77
2023/10/08 12:00:26;;;;;;;0.32;0.32;;;12.40;99.90;;;;;;5024421;28;20100;-77
2023/10/08 12:02:55;;;;;;;0.95;0.20;;;12.40;99.90;;;;;;5028595;28;20037;-77
2023/10/08 12:05:24;;;;;;;0.40;0.40;;;12.40;99.90;;;;;;5033993;28;20033;-77
2023/10/08 12:07:51;;;;;;;0.30;0.30;;;12.50;99.90;;;;;;5027067;28;20044;-77
2023/10/08 12:10:23;;;;;;;0.30;0.30;;;12.50;99.90;;;;;;5030137;28;20364;-77
2023/10/08 12:12:54;;;;;;;0.38;0.38;;;12.40;99.90;;;;;;5033456;28;20100;-76
2023/10/08 12:15:21;;;;;;;0.80;0.30;;;12.50;99.90;;;;;;5038213;28;20144;-77
2023/10/08 12:18:08;;;;;;;0.40;0.40;;;12.50;99.90;;;;;;5034178;28;20262;-77
2023/10/08 12:20:38;;;;;;;0.52;0.40;;;12.60;99.90;;;;;;5030855;28;20033;-77
2023/10/08 12:23:05;;;;;;;0.20;0.20;;;12.60;99.90;;;;;;5022138;28;20065;-77
2023/10/08 12:25:34;;;;;;;0.10;0.10;;;12.60;99.90;;;;;;5004333;28;20037;-78
2023/10/08 12:28:04;;;;;;;0.35;0.35;;;12.60;99.90;;;;;;5008981;28;20041;-78
2023/10/08 12:30:41;;;;;;;0.70;0.70;;;12.60;99.90;;;;;;5031110;28;20038;-78
2023/10/08 12:33:09;;;;;;;0.80;0.20;;;12.50;99.90;;;;;;5031023;28;20029;-80
2023/10/08 12:35:37;;;;;;;0.28;0.25;;;12.50;99.90;;;;;;5023481;28;20041;-79
2023/10/08 12:38:05;;;;;;;0.32;0.32;;;12.60;99.90;;;;;;5021146;28;20053;-78
2023/10/08 12:43:38;;;;;;;0.40;0.40;;;12.60;99.90;;;;;;5025715;28;20048;-78
2023/10/08 12:46:02;;;;;;;1.10;0.30;;;12.60;99.90;;;;;;5019931;28;20042;-78
2023/10/08 12:48:28;;;;;;;0.30;0.30;;;12.60;99.90;;;;;;5021626;28;20045;-77
2023/10/08 12:50:58;;;;;;;0.35;0.35;;;12.70;99.90;;;;;;5026356;28;20064;-78
2023/10/08 12:53:36;;;;;;;0.63;0.30;;;12.70;99.90;;;;;;5025442;28;20037;-77
2023/10/08 12:56:05;;;;;;;0.20;0.20;;;12.60;99.90;;;;;;5021952;28;20116;-77
2023/10/08 12:58:41;;;;;;;0.40;0.40;;;12.70;99.90;;;;;;5023884;28;20489;-76
2023/10/08 13:01:10;;;;;;;;;;;12.70;99.90;;;;;;5022755;28;20101;-78
2023/10/08 13:03:42;;;;;;;0.38;0.10;;;12.70;99.90;;;;;;5025885;28;20000;-78
2023/10/08 13:06:14;;;;;;;0.30;0.30;;;12.80;99.90;;;;;;5029145;28;20083;-79
2023/10/08 13:08:41;;;;;;;0.30;0.20;;;12.90;99.90;;;;;;5030348;28;20025;-79
2023/10/08 13:11:06;;;;;;;0.30;0.30;;;12.90;99.90;;;;;;5023299;28;20040;-77
2023/10/08 13:13:33;;;;;;;0.30;0.30;;;13.00;99.90;;;;;;5034070;28;20030;-77
2023/10/08 13:16:03;;;;;;;1.15;0.30;;;13.00;99.90;;;;;;5031843;28;20132;-78
2023/10/08 13:18:30;;;;;;;0.20;0.20;;;12.90;99.90;;;;;;5025670;28;20452;-77
2023/10/08 13:20:57;;;;;;;0.22;0.22;;;12.90;99.90;;;;;;5025263;28;20049;-77
2023/10/08 13:23:23;;;;;;;0.22;0.22;;;12.90;99.90;;;;;;5024379;28;20053;-77
2023/10/08 13:25:54;;;;;;;0.30;0.20;;;12.90;99.90;;;;;;5023766;28;20040;-77
2023/10/08 13:28:23;;;;;;;0.80;0.20;;;12.90;99.90;;;;;;5006794;28;20044;-77
2023/10/08 13:30:52;;;;;;;0.30;0.30;;;12.90;99.90;;;;;;5019739;28;20025;-78
2023/10/08 13:33:22;;;;;;;0.25;0.20;;;12.90;99.90;;;;;;5027958;28;20041;-77
2023/10/08 13:35:49;;;;;;;0.30;0.30;;;12.80;99.90;;;;;;5027538;28;20025;-77
2023/10/08 13:38:23;;;;;;;0.40;0.40;;;12.90;99.90;;;;;;5023786;28;20493;-77
2023/10/08 13:41:14;;;;;;;0.28;0.28;;;12.90;99.90;;;;;;5020379;28;20067;-77
2023/10/08 13:44:01;;;;;;;0.20;0.20;;;12.90;99.90;;;;;;5026139;28;20041;-77
2023/10/08 13:46:27;;;;;;;0.32;0.30;;;12.90;99.90;;;;;;5017041;28;20041;-77
2023/10/08 13:48:53;;;;;;;0.30;0.30;;;12.90;99.90;;;;;;5021344;28;20403;-78
2023/10/08 13:51:25;;;;;;;0.20;0.20;;;13.00;99.90;;;;;;5023967;28;20037;-77
2023/10/08 13:54:06;;;;;;;0.80;0.38;;;13.00;99.90;;;;;;5031374;28;20056;-78
2023/10/08 13:56:32;;;;;;;0.28;0.28;;;13.00;99.90;;;;;;5029057;28;20572;-78
2023/10/08 13:59:06;;;;;;;0.32;0.32;;;13.00;99.90;;;;;;5032712;28;20024;-77
2023/10/08 14:01:33;;;;;;;1.02;0.20;;;13.00;99.90;;;;;;5026247;28;20033;-77